Time;durP1;ratioP1;P1;durP2;ratioP2;P2;SDS_P1;SDS_P2;PMS_P1;PMS_P2;Temp;Humidity;BMP_temperature;BMP_pressure;BME280_temperature;BME280_humidity;BME280_pressure;Samples;Min_cycle;Max_cycle;Signal;HPM_P1;HPM_P2
2021/12/11 00:01:42;;;;;;;52.65;25.25;;;;;;;0.14;100.00;99638.91;5080434;28;20052;-62
2021/12/11 00:04:18;;;;;;;54.67;27.73;;;;;;;0.09;100.00;99639.94;5082326;28;20043;-61
2021/12/11 00:06:48;;;;;;;52.17;28.00;;;;;;;0.10;100.00;99642.50;5090509;28;20487;-62
2021/12/11 00:09:23;;;;;;;51.65;26.55;;;;;;;0.11;100.00;99649.34;5097031;28;20055;-62
2021/12/11 00:11:58;;;;;;;61.25;29.27;;;;;;;-0.04;100.00;99650.69;5053395;28;20370;-60
2021/12/11 00:14:28;;;;;;;56.95;27.70;;;;;;;-0.07;100.00;99655.09;5101873;28;20058;-61
2021/12/11 00:16:56;;;;;;;59.45;28.75;;;;;;;0.01;100.00;99649.69;5099724;28;20126;-60
2021/12/11 00:19:26;;;;;;;60.53;29.45;;;;;;;0.05;100.00;99661.66;5099056;28;20044;-60
2021/12/11 00:21:55;;;;;;;58.65;28.98;;;;;;;0.11;100.00;99667.47;5081048;28;20044;-60
2021/12/11 00:24:26;;;;;;;62.95;29.88;;;;;;;0.08;100.00;99666.72;5068953;28;20047;-63
2021/12/11 00:27:03;;;;;;;63.67;29.48;;;;;;;0.10;100.00;99670.13;5084235;28;20060;-62
2021/12/11 00:29:33;;;;;;;71.28;32.55;;;;;;;0.10;100.00;99672.69;5085343;28;20088;-62
2021/12/11 00:32:07;;;;;;;63.55;28.60;;;;;;;0.05;100.00;99667.66;5100990;28;20105;-60
2021/12/11 00:34:37;;;;;;;61.13;29.13;;;;;;;0.09;100.00;99673.56;5066763;28;20035;-61
2021/12/11 00:37:08;;;;;;;65.38;30.05;;;;;;;0.06;100.00;99677.13;5080438;28;20044;-62
2021/12/11 00:39:45;;;;;;;68.80;31.25;;;;;;;0.07;100.00;99686.56;5099204;28;20058;-63
2021/12/11 00:42:12;;;;;;;67.65;29.67;;;;;;;0.04;100.00;99689.25;5085146;28;20230;-62
2021/12/11 00:44:49;;;;;;;69.32;32.80;;;;;;;0.07;100.00;99688.31;5095084;28;20044;-59
2021/12/11 00:47:25;;;;;;;67.25;31.98;;;;;;;0.09;100.00;99702.03;5102214;28;20051;-59
2021/12/11 00:49:54;;;;;;;60.90;29.95;;;;;;;0.03;100.00;99704.81;5096944;28;20048;-60
2021/12/11 00:52:29;;;;;;;70.40;32.83;;;;;;;0.06;100.00;99712.50;5104260;28;20039;-60
2021/12/11 00:54:56;;;;;;;67.25;32.97;;;;;;;0.09;100.00;99713.25;5091587;28;20062;-61
2021/12/11 00:57:24;;;;;;;61.83;31.58;;;;;;;0.11;100.00;99716.63;5104090;28;20060;-60
2021/12/11 01:00:09;;;;;;;61.58;29.50;;;;;;;0.14;100.00;99726.91;5091208;28;20063;-61
2021/12/11 01:02:36;;;;;;;64.77;30.03;;;;;;;0.19;100.00;99734.53;5080937;28;20048;-60
2021/12/11 01:05:07;;;;;;;61.65;30.27;;;;;;;0.17;100.00;99738.88;5095628;28;20405;-59
2021/12/11 01:07:34;;;;;;;61.45;30.70;;;;;;;0.19;100.00;99748.31;5101491;28;20118;-61
2021/12/11 01:10:21;;;;;;;58.63;30.92;;;;;;;0.21;100.00;99743.91;5101062;28;20126;-61
2021/12/11 01:12:57;;;;;;;62.67;29.73;;;;;;;0.17;100.00;99749.25;5099820;28;20516;-61
2021/12/11 01:15:33;;;;;;;64.45;32.45;;;;;;;0.22;100.00;99760.28;5096953;28;20440;-61
2021/12/11 01:18:34;;;;;;;64.85;29.33;;;;;;;0.26;100.00;99759.31;5099533;28;20047;-60
2021/12/11 01:21:02;;;;;;;63.65;30.88;;;;;;;0.21;100.00;99763.78;5099514;28;20134;-60
2021/12/11 01:26:03;;;;;;;67.25;32.00;;;;;;;0.16;100.00;99769.09;5094946;28;20055;-61
2021/12/11 01:28:31;;;;;;;66.80;30.90;;;;;;;0.19;100.00;99769.00;5097091;28;20384;-60
2021/12/11 01:31:01;;;;;;;65.05;31.73;;;;;;;0.13;100.00;99768.34;5080323;28;20418;-61
2021/12/11 01:33:30;;;;;;;60.97;32.03;;;;;;;0.16;100.00;99781.19;5101402;28;20062;-61
2021/12/11 01:35:57;;;;;;;61.03;30.20;;;;;;;0.15;100.00;99775.19;5102795;22;20139;-57
2021/12/11 01:38:29;;;;;;;59.17;29.02;;;;;;;0.13;100.00;99778.69;5057921;28;20898;-57
2021/12/11 01:41:00;;;;;;;61.13;30.92;;;;;;;0.09;100.00;99782.25;5065493;28;20063;-58
2021/12/11 01:43:29;;;;;;;62.55;29.00;;;;;;;0.05;100.00;99780.69;5067213;28;20071;-57
2021/12/11 01:45:58;;;;;;;65.63;30.48;;;;;;;0.07;100.00;99789.22;5063923;28;20052;-58
2021/12/11 01:48:30;;;;;;;59.35;29.60;;;;;;;0.07;100.00;99787.50;5075012;28;20259;-59
2021/12/11 01:51:03;;;;;;;63.40;29.48;;;;;;;0.12;100.00;99792.53;5076308;28;20051;-56
2021/12/11 01:53:35;;;;;;;55.28;28.25;;;;;;;0.12;100.00;99788.19;5074213;28;20861;-57
2021/12/11 01:56:07;;;;;;;69.13;28.45;;;;;;;0.11;100.00;99801.19;5077104;28;20140;-56
2021/12/11 01:58:43;;;;;;;55.70;27.88;;;;;;;0.08;100.00;99791.75;5076620;28;20159;-56
2021/12/11 02:01:17;;;;;;;53.45;28.38;;;;;;;0.06;100.00;99797.91;5082979;28;20075;-58
2021/12/11 02:03:45;;;;;;;51.83;28.58;;;;;;;0.02;100.00;99802.31;5074756;28;20097;-58
2021/12/11 02:06:12;;;;;;;55.20;27.58;;;;;;;0.05;100.00;99806.56;5076380;28;20135;-58
2021/12/11 02:08:41;;;;;;;57.10;28.48;;;;;;;0.02;100.00;99810.06;5074093;28;20114;-59
2021/12/11 02:11:10;;;;;;;53.78;29.05;;;;;;;0.02;100.00;99817.84;5070751;28;20048;-59
2021/12/11 02:13:47;;;;;;;48.80;26.75;;;;;;;-0.11;100.00;99816.47;5078090;28;20046;-58
2021/12/11 02:16:28;;;;;;;59.13;28.40;;;;;;;-0.11;100.00;99822.50;5065806;28;20067;-60
2021/12/11 02:19:03;;;;;;;50.20;26.70;;;;;;;-0.18;100.00;99815.81;5082652;28;20130;-61
2021/12/11 02:21:36;;;;;;;54.70;28.20;;;;;;;-0.28;100.00;99822.97;5072212;28;20052;-59
2021/12/11 02:24:07;;;;;;;53.03;27.55;;;;;;;-0.32;100.00;99820.50;5077199;28;20067;-60
2021/12/11 02:26:38;;;;;;;52.70;26.75;;;;;;;-0.30;100.00;99824.75;5082904;28;20150;-58
2021/12/11 02:29:14;;;;;;;51.17;27.67;;;;;;;-0.18;100.00;99833.06;5082379;28;20059;-59
2021/12/11 02:32:03;;;;;;;51.50;28.52;;;;;;;-0.20;100.00;99840.88;5086780;28;20059;-59
2021/12/11 02:34:45;;;;;;;52.70;28.00;;;;;;;-0.25;100.00;99845.31;5079178;28;20055;-58
2021/12/11 02:37:23;;;;;;;55.50;29.40;;;;;;;-0.29;100.00;99841.13;5077663;28;20060;-58
2021/12/11 02:39:58;;;;;;;55.72;30.15;;;;;;;-0.30;100.00;99847.19;5078964;28;20049;-59
2021/12/11 02:42:30;;;;;;;52.80;28.05;;;;;;;-0.25;100.00;99837.56;5081064;28;20131;-58
2021/12/11 02:45:08;;;;;;;54.78;31.05;;;;;;;-0.23;100.00;99840.94;5075336;28;20059;-59
2021/12/11 02:47:40;;;;;;;53.92;29.38;;;;;;;-0.19;100.00;99842.56;5080780;28;20127;-60
2021/12/11 02:50:21;;;;;;;50.03;29.00;;;;;;;-0.27;100.00;99847.09;5079702;28;20048;-59
2021/12/11 02:53:13;;;;;;;53.50;29.13;;;;;;;-0.20;100.00;99851.22;5074823;28;20377;-59
2021/12/11 02:55:51;;;;;;;50.05;27.50;;;;;;;-0.27;100.00;99847.97;5074965;28;20050;-59
2021/12/11 02:58:23;;;;;;;55.42;30.08;;;;;;;-0.30;100.00;99858.38;5081890;28;20052;-59
2021/12/11 03:00:53;;;;;;;52.90;28.73;;;;;;;-0.24;100.00;99852.19;5059209;28;20058;-59
2021/12/11 03:03:27;;;;;;;50.85;27.30;;;;;;;-0.30;100.00;99860.13;5073874;28;21071;-59
2021/12/11 03:06:05;;;;;;;53.45;27.70;;;;;;;-0.32;100.00;99856.72;5081959;28;20452;-60
2021/12/11 03:08:32;;;;;;;53.38;28.30;;;;;;;-0.37;100.00;99867.19;5075790;28;20135;-59
2021/12/11 03:11:02;;;;;;;52.15;28.83;;;;;;;-0.29;100.00;99861.81;5083244;28;20496;-57
2021/12/11 03:13:31;;;;;;;53.13;28.35;;;;;;;-0.25;100.00;99860.84;5084035;28;21030;-60
2021/12/11 03:15:58;;;;;;;54.47;30.25;;;;;;;-0.19;100.00;99872.75;5088123;28;20056;-59
2021/12/11 03:18:26;;;;;;;61.72;30.73;;;;;;;-0.22;100.00;99870.28;5082173;28;20060;-59
2021/12/11 03:20:53;;;;;;;55.83;30.92;;;;;;;-0.19;100.00;99865.84;5082042;28;20130;-59
2021/12/11 03:23:21;;;;;;;54.03;31.40;;;;;;;-0.21;100.00;99870.22;5081489;28;20048;-60
2021/12/11 03:25:48;;;;;;;63.83;32.10;;;;;;;-0.23;100.00;99879.75;5075874;28;20058;-60
2021/12/11 03:28:17;;;;;;;62.38;33.13;;;;;;;-0.16;100.00;99883.03;5076023;28;20055;-60
2021/12/11 03:30:52;;;;;;;59.08;31.77;;;;;;;-0.17;100.00;99881.34;5078654;28;20056;-59
2021/12/11 03:33:19;;;;;;;61.50;32.25;;;;;;;-0.19;100.00;99885.69;5079226;28;20076;-61
2021/12/11 03:35:47;;;;;;;69.03;34.17;;;;;;;-0.17;100.00;99887.34;5084147;28;20052;-60
2021/12/11 03:38:15;;;;;;;63.55;33.10;;;;;;;-0.19;100.00;99898.63;5082571;28;20444;-60
2021/12/11 03:40:43;;;;;;;65.93;33.67;;;;;;;-0.15;100.00;99895.91;5079537;28;20136;-58
2021/12/11 03:43:13;;;;;;;66.65;35.15;;;;;;;-0.16;100.00;99903.72;5082707;28;20139;-60
2021/12/11 03:45:43;;;;;;;65.60;33.50;;;;;;;-0.16;100.00;99909.75;5067841;28;20040;-60
2021/12/11 03:48:16;;;;;;;63.25;32.92;;;;;;;-0.10;100.00;99906.13;5090108;28;20120;-60
2021/12/11 03:50:45;;;;;;;61.45;31.83;;;;;;;-0.05;100.00;99918.03;5079370;28;20044;-61
2021/12/11 03:53:13;;;;;;;65.18;34.28;;;;;;;-0.03;100.00;99924.03;5089415;28;20052;-60
2021/12/11 03:55:48;;;;;;;69.70;32.10;;;;;;;-0.04;100.00;99919.78;5085197;28;20063;-57
2021/12/11 03:58:15;;;;;;;60.53;33.13;;;;;;;-0.01;100.00;99922.25;5075120;28;20631;-60
2021/12/11 04:00:48;;;;;;;61.47;32.00;;;;;;;-0.04;100.00;99924.09;5076574;28;20080;-59
2021/12/11 04:03:25;;;;;;;61.42;32.58;;;;;;;-0.05;100.00;99924.97;5062843;28;20048;-60
2021/12/11 04:05:52;;;;;;;64.65;34.47;;;;;;;0.03;100.00;99925.63;5070733;28;20050;-60
2021/12/11 04:08:24;;;;;;;64.80;35.33;;;;;;;0.06;100.00;99932.47;5086255;28;20134;-60
2021/12/11 04:10:51;;;;;;;69.93;34.00;;;;;;;0.11;100.00;99935.75;5073256;28;20071;-58
2021/12/11 04:13:18;;;;;;;69.70;34.33;;;;;;;0.14;100.00;99951.22;5078199;28;20056;-59
2021/12/11 04:15:48;;;;;;;64.20;33.92;;;;;;;0.15;100.00;99947.75;5078142;28;20044;-61
2021/12/11 04:18:16;;;;;;;64.30;35.45;;;;;;;0.15;100.00;99955.50;5076003;28;20144;-60
2021/12/11 04:20:45;;;;;;;66.45;33.60;;;;;;;0.10;100.00;99963.38;5083913;28;20519;-61
2021/12/11 04:23:13;;;;;;;68.30;36.30;;;;;;;0.05;100.00;99967.00;5084000;28;20058;-61
2021/12/11 04:25:44;;;;;;;78.90;38.30;;;;;;;0.01;100.00;99975.72;5079383;28;20043;-58
2021/12/11 04:28:12;;;;;;;72.88;37.70;;;;;;;0.00;100.00;99977.47;5085690;28;20141;-59
2021/12/11 04:30:39;;;;;;;75.40;38.13;;;;;;;-0.01;100.00;99979.19;5074633;28;20053;-61
2021/12/11 04:33:07;;;;;;;78.88;39.15;;;;;;;-0.04;100.00;99983.59;5083603;28;20048;-61
2021/12/11 04:35:34;;;;;;;82.78;40.42;;;;;;;-0.01;100.00;99981.75;5077840;28;20059;-59
2021/12/11 04:38:05;;;;;;;80.57;41.00;;;;;;;0.11;100.00;99984.94;5090564;28;20128;-61
2021/12/11 04:40:37;;;;;;;78.72;38.63;;;;;;;0.10;100.00;99993.59;5084082;28;20050;-60
2021/12/11 04:43:10;;;;;;;79.20;41.72;;;;;;;0.17;100.00;100002.88;5081860;28;20047;-58
2021/12/11 04:45:42;;;;;;;76.18;38.33;;;;;;;0.16;100.00;100007.22;5079566;28;20139;-58
2021/12/11 04:48:26;;;;;;;77.30;36.75;;;;;;;0.06;100.00;100008.34;5080599;28;20048;-59
2021/12/11 04:53:38;;;;;;;72.13;34.97;;;;;;;0.04;100.00;100023.06;5080356;28;20048;-58
2021/12/11 04:59:22;;;;;;;66.03;32.90;;;;;;;-0.04;100.00;100036.19;5069940;28;20049;-60
2021/12/11 05:04:50;;;;;;;69.25;32.42;;;;;;;0.05;100.00;100040.31;5079638;28;20550;-60
2021/12/11 05:07:36;;;;;;;58.15;29.38;;;;;;;-0.04;100.00;100043.97;5081364;28;20044;-58
2021/12/11 05:10:16;;;;;;;55.00;29.83;;;;;;;-0.01;100.00;100051.63;5079639;28;20415;-57
2021/12/11 05:12:45;;;;;;;57.03;28.92;;;;;;;0.03;100.00;100055.00;5082930;28;20055;-60
2021/12/11 05:15:19;;;;;;;61.20;29.70;;;;;;;-0.02;100.00;100056.84;5080952;28;20048;-59
2021/12/11 05:17:46;;;;;;;57.50;28.25;;;;;;;-0.09;100.00;100061.34;5090123;28;20078;-59
2021/12/11 05:20:15;;;;;;;58.63;30.60;;;;;;;-0.10;100.00;100069.97;5080994;28;20044;-59
2021/12/11 05:22:42;;;;;;;65.40;31.05;;;;;;;-0.09;100.00;100071.69;5077924;28;20048;-59
2021/12/11 05:25:11;;;;;;;57.53;30.05;;;;;;;-0.02;100.00;100072.38;5084173;28;20054;-60
2021/12/11 05:27:40;;;;;;;66.57;30.83;;;;;;;0.01;100.00;100085.25;5080311;28;20135;-60
2021/12/11 05:30:16;;;;;;;56.85;30.20;;;;;;;0.04;100.00;100084.31;5060011;28;20539;-58
2021/12/11 05:32:43;;;;;;;;;;;;;;;0.01;100.00;100089.59;5087349;28;20054;-58
2021/12/11 05:35:10;;;;;;;58.22;29.77;;;;;;;0.03;100.00;100090.38;5075085;28;20039;-58
2021/12/11 05:37:38;;;;;;;53.50;28.42;;;;;;;0.08;100.00;100091.97;5086082;28;20054;-61
2021/12/11 05:40:08;;;;;;;60.40;29.48;;;;;;;-0.01;100.00;100095.63;5075066;28;20614;-58
2021/12/11 05:42:35;;;;;;;59.10;29.08;;;;;;;0.02;100.00;100105.06;5078938;28;20055;-59
2021/12/11 05:45:05;;;;;;;58.20;29.42;;;;;;;0.08;100.00;100102.31;5083286;28;20055;-60
2021/12/11 05:47:32;;;;;;;57.58;29.13;;;;;;;0.06;100.00;100109.28;5082735;28;20507;-59
2021/12/11 05:50:00;;;;;;;52.05;28.05;;;;;;;0.13;100.00;100115.13;5075585;28;20059;-59
2021/12/11 05:52:27;;;;;;;51.08;28.13;;;;;;;0.09;100.00;100123.88;5067658;28;20066;-58
2021/12/11 05:54:54;;;;;;;58.65;29.83;;;;;;;0.11;100.00;100120.38;5087592;28;20074;-56
2021/12/11 05:57:22;;;;;;;55.78;29.42;;;;;;;0.07;100.00;100120.47;5082456;28;20044;-60
2021/12/11 05:59:49;;;;;;;51.40;28.13;;;;;;;0.07;100.00;100128.25;5055315;28;20055;-60
2021/12/11 06:02:23;;;;;;;54.08;29.77;;;;;;;0.07;100.00;100129.09;5073812;28;20044;-60
2021/12/11 06:04:55;;;;;;;54.95;27.83;;;;;;;0.06;100.00;100134.31;5074864;28;20056;-61
2021/12/11 06:07:25;;;;;;;51.17;26.92;;;;;;;0.08;100.00;100133.38;5079908;28;20468;-60
2021/12/11 06:09:57;;;;;;;53.88;28.85;;;;;;;0.11;100.00;100138.47;5083654;28;20044;-60
2021/12/11 06:12:24;;;;;;;63.47;29.90;;;;;;;0.12;100.00;100142.75;5082135;28;20048;-60
2021/12/11 06:14:53;;;;;;;65.57;30.35;;;;;;;0.21;100.00;100141.69;5082754;28;20050;-59
2021/12/11 06:17:23;;;;;;;75.10;33.63;;;;;;;0.25;100.00;100153.69;5080783;28;20434;-60
2021/12/11 06:19:53;;;;;;;84.90;34.45;;;;;;;0.26;100.00;100147.59;5080570;28;20050;-60
2021/12/11 06:22:24;;;;;;;89.35;36.97;;;;;;;0.33;100.00;100156.09;5068936;28;20155;-59
2021/12/11 06:24:52;;;;;;;87.57;36.92;;;;;;;0.32;100.00;100157.84;5081043;28;20055;-60
2021/12/11 06:27:19;;;;;;;84.60;36.00;;;;;;;0.31;100.00;100166.47;5081160;28;20079;-60
2021/12/11 06:29:47;;;;;;;92.47;36.47;;;;;;;0.31;100.00;100166.47;5082306;28;20078;-60
2021/12/11 06:32:14;;;;;;;86.13;37.05;;;;;;;0.31;100.00;100170.78;5082414;28;20056;-60
2021/12/11 06:34:41;;;;;;;87.05;35.20;;;;;;;0.30;100.00;100172.53;5075508;28;20094;-56
2021/12/11 06:37:10;;;;;;;99.13;38.35;;;;;;;0.27;100.00;100170.03;5080319;28;20040;-58
2021/12/11 06:39:37;;;;;;;92.18;36.60;;;;;;;0.26;100.00;100176.09;5078079;28;20052;-59
2021/12/11 06:42:16;;;;;;;88.63;35.25;;;;;;;0.27;100.00;100176.94;5070699;28;20512;-58
2021/12/11 06:44:43;;;;;;;97.63;36.40;;;;;;;0.21;100.00;100188.28;5077040;28;20131;-60
2021/12/11 06:47:11;;;;;;;94.47;35.65;;;;;;;0.09;100.00;100185.97;5071228;28;20059;-58
2021/12/11 06:49:39;;;;;;;95.50;35.65;;;;;;;-0.01;100.00;100188.78;5075653;28;20745;-58
2021/12/11 06:52:11;;;;;;;87.47;33.70;;;;;;;0.03;100.00;100196.47;5090678;28;20052;-57
2021/12/11 06:54:38;;;;;;;91.43;34.42;;;;;;;0.03;100.00;100204.25;5083174;28;20041;-60
2021/12/11 06:57:06;;;;;;;92.15;34.58;;;;;;;0.01;100.00;100201.69;5079446;28;20044;-58
2021/12/11 06:59:33;;;;;;;96.57;34.53;;;;;;;-0.01;100.00;100209.47;5060720;28;20040;-58
2021/12/11 07:02:01;;;;;;;86.72;34.47;;;;;;;-0.04;100.00;100211.31;5081305;28;20150;-60
2021/12/11 07:04:28;;;;;;;87.95;33.03;;;;;;;0.01;100.00;100219.81;5085355;28;20170;-60
2021/12/11 07:06:55;;;;;;;84.85;33.92;;;;;;;0.10;100.00;100232.56;5081002;28;20143;-60
2021/12/11 07:09:25;;;;;;;96.90;34.05;;;;;;;0.13;100.00;100242.81;5058545;28;20052;-59
2021/12/11 07:11:54;;;;;;;87.95;32.28;;;;;;;0.18;100.00;100247.88;5082103;28;20048;-59
2021/12/11 07:14:22;;;;;;;82.65;32.75;;;;;;;0.11;100.00;100248.94;5082675;28;20109;-59
2021/12/11 07:16:51;;;;;;;84.68;34.30;;;;;;;0.07;100.00;100260.22;5084246;28;20044;-59
2021/12/11 07:19:18;;;;;;;85.55;33.38;;;;;;;0.08;100.00;100267.09;5080064;28;21254;-59
2021/12/11 07:21:50;;;;;;;77.07;31.42;;;;;;;0.09;100.00;100271.38;5080756;28;20057;-60
2021/12/11 07:24:22;;;;;;;73.93;30.27;;;;;;;0.13;100.00;100278.19;5078535;28;20052;-60
2021/12/11 07:26:50;;;;;;;81.00;32.63;;;;;;;0.07;100.00;100273.16;5083221;28;20056;-58
2021/12/11 07:29:19;;;;;;;72.72;29.77;;;;;;;0.08;100.00;100290.38;5075982;28;20443;-59
2021/12/11 07:31:48;;;;;;;80.65;32.10;;;;;;;0.09;100.00;100290.38;5080105;28;20096;-57
2021/12/11 07:34:16;;;;;;;72.47;31.23;;;;;;;0.13;100.00;100294.56;5076879;28;20101;-59
2021/12/11 07:36:44;;;;;;;81.07;30.45;;;;;;;0.20;100.00;100305.66;5082902;28;20087;-59
2021/12/11 07:39:14;;;;;;;72.85;30.30;;;;;;;0.21;100.00;100312.53;5060691;28;20135;-60
2021/12/11 07:41:42;;;;;;;78.30;30.52;;;;;;;0.27;100.00;100319.31;5082014;28;20148;-60
2021/12/11 07:44:10;;;;;;;82.35;32.38;;;;;;;0.28;100.00;100321.91;5083059;28;20060;-60
2021/12/11 07:46:37;;;;;;;85.65;32.25;;;;;;;0.27;100.00;100322.78;5083342;28;20063;-59
2021/12/11 07:49:05;;;;;;;86.43;30.45;;;;;;;0.17;100.00;100327.28;5078704;28;20059;-60
2021/12/11 07:51:34;;;;;;;82.13;31.45;;;;;;;0.18;100.00;100336.78;5076451;28;20147;-60
2021/12/11 07:54:03;;;;;;;91.15;32.67;;;;;;;0.20;100.00;100341.91;5080235;28;20447;-60
2021/12/11 07:56:31;;;;;;;93.68;34.22;;;;;;;0.25;100.00;100345.25;5078388;28;20052;-61
2021/12/11 07:59:03;;;;;;;87.13;32.80;;;;;;;0.26;100.00;100346.94;5080916;28;20052;-58
2021/12/11 08:01:33;;;;;;;83.55;29.77;;;;;;;0.33;100.00;100351.13;5079410;28;20056;-60
2021/12/11 08:04:03;;;;;;;87.75;32.80;;;;;;;0.38;100.00;100358.78;5075767;28;20056;-59
2021/12/11 08:06:31;;;;;;;83.80;30.70;;;;;;;0.34;100.00;100360.59;5078248;28;20084;-60
2021/12/11 08:08:59;;;;;;;88.55;33.40;;;;;;;0.36;100.00;100363.13;5080187;28;20524;-59
2021/12/11 08:11:28;;;;;;;83.53;31.42;;;;;;;0.37;100.00;100359.69;5080253;28;20052;-59
2021/12/11 08:13:57;;;;;;;81.25;32.63;;;;;;;0.36;100.00;100365.72;5082617;28;20052;-57
2021/12/11 08:16:32;;;;;;;80.25;30.83;;;;;;;0.36;100.00;100366.59;5081471;28;20056;-59
2021/12/11 08:19:00;;;;;;;;;;;;;;;0.45;100.00;100370.69;5080334;28;20056;-57
2021/12/11 08:21:27;;;;;;;82.47;32.15;;;;;;;0.43;100.00;100373.34;5062551;28;20545;-59
2021/12/11 08:23:56;;;;;;;82.90;31.98;;;;;;;0.50;100.00;100374.94;5081687;28;20048;-60
2021/12/11 08:26:24;;;;;;;77.05;30.80;;;;;;;0.48;100.00;100386.19;5077312;28;20136;-59
2021/12/11 08:28:52;;;;;;;82.18;31.40;;;;;;;0.39;100.00;100383.78;5058617;28;20147;-59
2021/12/11 08:31:20;;;;;;;78.28;32.38;;;;;;;0.34;100.00;100383.88;5079431;28;20053;-60
2021/12/11 08:33:48;;;;;;;70.30;30.90;;;;;;;0.39;100.00;100387.22;5082232;28;20048;-59
2021/12/11 08:36:15;;;;;;;83.47;33.80;;;;;;;0.38;100.00;100395.91;5082632;28;20050;-59
2021/12/11 08:38:43;;;;;;;82.32;33.42;;;;;;;0.42;100.00;100389.78;5072208;28;20051;-59
2021/12/11 08:41:13;;;;;;;71.05;30.98;;;;;;;0.43;100.00;100393.22;5080622;28;20051;-58
2021/12/11 08:43:41;;;;;;;73.18;31.05;;;;;;;0.47;100.00;100400.88;5074545;28;20050;-58
2021/12/11 08:46:13;;;;;;;74.45;31.73;;;;;;;0.58;100.00;100399.78;5081514;28;20056;-59
2021/12/11 08:48:48;;;;;;;77.88;32.08;;;;;;;0.54;100.00;100409.38;5082618;28;20062;-57
2021/12/11 08:51:30;;;;;;;75.63;31.60;;;;;;;0.58;100.00;100415.31;5073768;28;20486;-59
2021/12/11 08:53:57;;;;;;;78.95;31.70;;;;;;;0.66;100.00;100413.44;5081107;28;20070;-58
2021/12/11 08:56:25;;;;;;;72.10;30.52;;;;;;;0.71;100.00;100419.38;5077483;28;20131;-60
2021/12/11 08:58:53;;;;;;;67.30;30.20;;;;;;;0.82;100.00;100427.78;5061824;28;20135;-59
2021/12/11 09:01:31;;;;;;;63.97;30.10;;;;;;;0.82;100.00;100432.09;5079988;28;20143;-60
2021/12/11 09:04:05;;;;;;;60.35;28.02;;;;;;;0.77;100.00;100434.78;5080255;28;20527;-58
2021/12/11 09:06:40;;;;;;;64.50;29.50;;;;;;;0.63;100.00;100447.16;5058757;28;20465;-60
2021/12/11 09:09:12;;;;;;;69.47;30.30;;;;;;;0.75;100.00;100452.09;5078863;28;20059;-59
2021/12/11 09:11:44;;;;;;;61.22;30.08;;;;;;;0.88;100.00;100455.28;5078711;28;20044;-58
2021/12/11 09:14:37;;;;;;;61.33;26.70;;;;;;;0.80;100.00;100458.03;5075252;28;20140;-58
2021/12/11 09:17:21;;;;;;;54.15;26.20;;;;;;;0.87;100.00;100466.53;5081726;28;20512;-58
2021/12/11 09:20:01;;;;;;;50.08;25.25;;;;;;;0.80;100.00;100462.38;5076963;28;20073;-60
2021/12/11 09:22:32;;;;;;;43.00;21.85;;;;;;;0.82;100.00;100470.97;5079378;28;20071;-60
2021/12/11 09:25:25;;;;;;;38.83;21.77;;;;;;;0.66;100.00;100479.03;5079811;28;20054;-60
2021/12/11 09:27:57;;;;;;;40.03;20.58;;;;;;;0.64;100.00;100464.44;5077090;28;20056;-60
2021/12/11 09:30:33;;;;;;;42.10;21.25;;;;;;;0.61;100.00;100473.13;5073886;28;20078;-59
2021/12/11 09:33:05;;;;;;;34.22;19.08;;;;;;;0.67;100.00;100472.13;5079962;28;20071;-60
2021/12/11 09:35:39;;;;;;;35.45;19.48;;;;;;;0.70;100.00;100475.50;5072147;28;20056;-59
2021/12/11 09:38:11;;;;;;;36.67;18.83;;;;;;;0.95;100.00;100482.78;5078260;28;20729;-60
2021/12/11 09:40:38;;;;;;;28.15;16.10;;;;;;;0.68;100.00;100481.63;5073137;28;20052;-58
2021/12/11 09:43:05;;;;;;;31.63;17.13;;;;;;;0.65;100.00;100481.69;5080146;28;20051;-59
2021/12/11 09:45:43;;;;;;;29.63;16.88;;;;;;;0.65;100.00;100484.28;5078432;28;20503;-60
2021/12/11 09:48:16;;;;;;;31.00;16.67;;;;;;;0.60;100.00;100488.69;5080290;28;20044;-59
2021/12/11 09:50:59;;;;;;;31.90;16.77;;;;;;;0.56;100.00;100487.91;5078019;28;20048;-60
2021/12/11 09:53:29;;;;;;;30.05;16.20;;;;;;;0.72;100.00;100502.25;5080484;28;20638;-59
2021/12/11 09:55:57;;;;;;;34.58;17.58;;;;;;;0.70;100.00;100501.41;5085557;28;20048;-58
2021/12/11 09:58:28;;;;;;;35.58;19.17;;;;;;;0.73;100.00;100511.72;5085331;28;20079;-59
2021/12/11 10:01:01;;;;;;;35.28;18.17;;;;;;;0.85;100.00;100513.19;5084664;28;20500;-59
2021/12/11 10:03:32;;;;;;;32.80;17.55;;;;;;;0.96;100.00;100524.22;5085283;28;20150;-59
2021/12/11 10:06:13;;;;;;;34.85;19.25;;;;;;;1.16;100.00;100516.00;5085257;28;20131;-58
2021/12/11 10:08:46;;;;;;;34.92;19.15;;;;;;;1.09;100.00;100511.00;5084404;28;20123;-57
2021/12/11 10:11:24;;;;;;;31.83;17.58;;;;;;;1.09;100.00;100516.19;5078352;28;20068;-59
2021/12/11 10:14:12;;;;;;;35.63;18.42;;;;;;;1.12;100.00;100510.91;5084917;28;20052;-59
2021/12/11 10:16:47;;;;;;;35.00;19.38;;;;;;;1.20;100.00;100524.56;5091397;28;20040;-59
2021/12/11 10:19:17;;;;;;;34.08;17.63;;;;;;;1.13;100.00;100531.63;5082152;28;20052;-59
2021/12/11 10:21:56;;;;;;;32.80;17.35;;;;;;;0.97;100.00;100535.44;5080522;28;20052;-61
2021/12/11 10:24:26;;;;;;;31.45;17.23;;;;;;;0.95;100.00;100540.66;5078552;28;20445;-61
2021/12/11 10:26:54;;;;;;;30.70;16.55;;;;;;;0.79;100.00;100534.06;5077719;28;20040;-58
2021/12/11 10:29:23;;;;;;;31.35;17.48;;;;;;;0.87;100.00;100533.91;5076873;28;22205;-58
2021/12/11 10:31:58;;;;;;;35.05;18.42;;;;;;;0.94;100.00;100538.94;5073230;28;20063;-57
2021/12/11 10:34:27;;;;;;;29.15;16.58;;;;;;;1.05;100.00;100538.72;5067463;28;20093;-58
2021/12/11 10:37:05;;;;;;;33.55;17.35;;;;;;;1.21;100.00;100542.66;5082320;28;20780;-58
2021/12/11 10:39:34;;;;;;;32.03;16.52;;;;;;;1.29;100.00;100542.50;5072760;28;20666;-60
2021/12/11 10:42:02;;;;;;;31.77;17.23;;;;;;;1.48;100.00;100550.72;5078609;28;20393;-59
2021/12/11 10:44:33;;;;;;;33.25;17.08;;;;;;;1.50;100.00;100552.41;5076112;28;20448;-60
2021/12/11 10:47:05;;;;;;;32.28;16.98;;;;;;;1.63;99.87;100554.72;5080954;28;20059;-59
2021/12/11 10:49:33;;;;;;;31.98;17.23;;;;;;;1.51;99.29;100551.50;5075486;28;20051;-59
2021/12/11 10:52:09;;;;;;;31.17;16.38;;;;;;;1.31;98.65;100555.47;5086543;28;20063;-60
2021/12/11 10:54:36;;;;;;;34.40;16.73;;;;;;;1.35;99.79;100567.44;5079113;28;20084;-60
2021/12/11 10:57:04;;;;;;;34.05;18.13;;;;;;;1.16;100.00;100567.84;5067153;28;20048;-59
2021/12/11 10:59:37;;;;;;;35.35;18.13;;;;;;;1.06;100.00;100573.28;5088346;28;20139;-59
2021/12/11 11:02:11;;;;;;;31.85;16.58;;;;;;;0.92;100.00;100581.31;5071087;28;20473;-60
2021/12/11 11:04:49;;;;;;;33.63;18.08;;;;;;;0.84;100.00;100581.47;5068622;28;20063;-59
2021/12/11 11:07:16;;;;;;;35.63;17.13;;;;;;;0.75;100.00;100582.50;5084970;28;20080;-60
2021/12/11 11:09:44;;;;;;;32.42;17.52;;;;;;;0.70;100.00;100597.28;5070848;28;20674;-59
2021/12/11 11:12:16;;;;;;;35.22;18.50;;;;;;;0.59;100.00;100606.16;5059295;28;20062;-57
2021/12/11 11:14:43;;;;;;;38.25;19.45;;;;;;;0.56;100.00;100606.19;5076992;28;20048;-59
2021/12/11 11:17:14;;;;;;;37.47;19.13;;;;;;;0.74;100.00;100601.53;5074616;28;20102;-58
2021/12/11 11:19:42;;;;;;;36.92;20.02;;;;;;;0.86;100.00;100605.63;5074910;28;20163;-59
2021/12/11 11:22:14;;;;;;;39.22;19.35;;;;;;;0.75;100.00;100595.44;5081805;28;20113;-59
2021/12/11 11:24:46;;;;;;;39.85;19.65;;;;;;;0.67;100.00;100605.09;5075341;28;20591;-58
2021/12/11 11:27:13;;;;;;;38.00;19.70;;;;;;;0.73;100.00;100607.59;5083138;28;20131;-58
2021/12/11 11:29:42;;;;;;;44.25;20.92;;;;;;;0.77;100.00;100613.59;5079941;28;20584;-59
2021/12/11 11:32:14;;;;;;;34.65;19.42;;;;;;;0.88;100.00;100616.81;5082830;28;20138;-60
2021/12/11 11:34:42;;;;;;;45.03;20.20;;;;;;;0.98;100.00;100623.50;5084420;28;20132;-59
2021/12/11 11:37:13;;;;;;;45.40;21.08;;;;;;;1.06;100.00;100619.94;5095921;28;20126;-58
2021/12/11 11:39:40;;;;;;;41.80;21.25;;;;;;;1.05;100.00;100621.69;5078364;28;20098;-59
2021/12/11 11:42:12;;;;;;;41.10;20.75;;;;;;;1.21;100.00;100620.47;5077201;28;20047;-59